Tarata, Bolivia
Current Conditions -  °F | °C
As of 4:00 PM on Friday 24 Oct 2014 (Local Time) from SLCB Reporting Station
Scattered Clouds Scattered Clouds  
Wind Chill: 82°   Ceiling: Unl
Heat Index: 82°   Visibility: 6mi
Dew Point: 41°   Wind: 12mph
Humidity: 23%   Direction: 160°SSE
Pressure: 30.09"   Gusts: NA
Location:  17.62°S, 66.03°W
Report Text: SLCB 242000Z 16010KT 110V220 9999 SCT027 FEW030CB 28/05 Q1019
Loading
Personal Weather Stations






























Interactive Weather Map
Tropical Storm Tracking
New forecast layout! Learn more

10-Day Weather Forecast

Advertisements
Track Severe Weather on mobile